Terminal Aerodrome Forecast
Issued by NWS Shreveport, LA

Home | Current Version | Previous Version | Text Only | Print | Product List | Glossary On
Versions: 1 2 3 4 5 6 7 8 9 10 11 12 13
467
FTUS44 KSHV 120523
TAFTYR
TAF
KTYR 120523Z 1206/1306 32010KT P6SM SKC
     FM121500 35014G19KT P6SM SKC
     FM122100 33010KT P6SM SKC
     FM130000 30004KT P6SM SKC=

USA.gov is the U.S. government's official web portal to all federal, state and local government web resources and services.